Time;durP1;ratioP1;P1;durP2;ratioP2;P2;SDS_P1;SDS_P2;PMS_P1;PMS_P2;Temp;Humidity;BMP_temperature;BMP_pressure;BME280_temperature;BME280_humidity;BME280_pressure;Samples;Min_cycle;Max_cycle;Signal;HPM_P1;HPM_P2
2021/03/09 00:00:46;;;;;;;9.63;5.20;;;-1.50;99.90;;;;;;8366203;28;20039;-63
2021/03/09 00:04:47;;;;;;;10.88;5.50;;;-1.50;99.90;;;;;;8363722;28;20078;-63
2021/03/09 00:08:47;;;;;;;9.57;5.82;;;-1.70;99.90;;;;;;8364768;28;20092;-63
2021/03/09 00:12:48;;;;;;;11.00;5.55;;;-1.90;99.90;;;;;;8365091;28;20468;-63
2021/03/09 00:16:49;;;;;;;9.32;5.18;;;-2.00;99.90;;;;;;8347966;28;20028;-63
2021/03/09 00:20:49;;;;;;;10.50;5.60;;;-1.80;99.90;;;;;;8365412;28;20055;-64
2021/03/09 00:24:50;;;;;;;9.93;5.32;;;-1.80;99.90;;;;;;8347628;28;20032;-63
2021/03/09 00:28:50;;;;;;;10.23;5.68;;;-1.80;99.90;;;;;;8365221;28;20028;-63
2021/03/09 00:32:51;;;;;;;9.60;5.30;;;-2.00;99.90;;;;;;8347390;28;20028;-63
2021/03/09 00:36:51;;;;;;;9.52;5.63;;;-1.90;99.90;;;;;;8346207;28;20040;-63
2021/03/09 00:40:52;;;;;;;9.88;5.30;;;-2.20;99.90;;;;;;8345985;28;20060;-63
2021/03/09 00:44:52;;;;;;;11.68;5.70;;;-2.30;99.90;;;;;;8346689;28;20025;-63
2021/03/09 00:48:53;;;;;;;13.50;6.32;;;-2.30;99.90;;;;;;8346818;28;20573;-63
2021/03/09 00:52:53;;;;;;;10.43;5.82;;;-2.50;99.90;;;;;;8364407;28;20637;-63
2021/03/09 00:56:54;;;;;;;10.00;5.57;;;-2.50;99.90;;;;;;8363745;28;20029;-63
2021/03/09 01:00:55;;;;;;;9.25;5.20;;;-2.20;99.90;;;;;;8363063;28;20063;-63
2021/03/09 01:04:55;;;;;;;10.88;4.93;;;-2.10;99.90;;;;;;8363237;28;20090;-63
2021/03/09 01:08:56;;;;;;;9.40;5.63;;;-2.00;99.90;;;;;;8344499;28;20053;-63
2021/03/09 01:12:56;;;;;;;10.88;5.82;;;-2.00;99.90;;;;;;8363145;28;20029;-64
2021/03/09 01:16:57;;;;;;;11.50;5.78;;;-2.40;99.90;;;;;;8364083;28;20090;-63
2021/03/09 01:20:57;;;;;;;11.10;6.07;;;-2.70;99.90;;;;;;8363400;28;20025;-63
2021/03/09 01:24:58;;;;;;;10.95;5.95;;;-2.80;99.90;;;;;;8363421;28;20021;-63
2021/03/09 01:28:58;;;;;;;11.73;6.07;;;-2.60;99.90;;;;;;8363459;28;20033;-63
2021/03/09 01:32:59;;;;;;;10.90;6.38;;;-2.70;99.90;;;;;;8345308;28;20048;-63
2021/03/09 01:37:00;;;;;;;10.00;5.65;;;-2.80;99.90;;;;;;8362063;28;20028;-63
2021/03/09 01:41:01;;;;;;;11.63;5.93;;;-3.10;99.90;;;;;;8343712;28;20029;-63
2021/03/09 01:45:04;;;;;;;11.77;6.30;;;-2.90;99.90;;;;;;8362247;28;20028;-63
2021/03/09 01:49:05;;;;;;;15.90;5.68;;;-2.60;99.90;;;;;;8344420;28;20043;-63
2021/03/09 01:53:07;;;;;;;10.68;5.82;;;-2.70;99.90;;;;;;8362541;28;20108;-63
2021/03/09 01:57:10;;;;;;;14.07;6.18;;;-2.70;99.90;;;;;;8344525;28;20394;-63
2021/03/09 02:01:10;;;;;;;11.32;5.85;;;-2.60;99.90;;;;;;8344394;28;20060;-64
2021/03/09 02:05:12;;;;;;;12.70;6.63;;;-2.90;99.90;;;;;;8361653;28;20024;-63
2021/03/09 02:09:13;;;;;;;10.85;5.90;;;-2.90;99.90;;;;;;8360729;28;20082;-63
2021/03/09 02:13:31;;;;;;;11.07;6.55;;;-3.10;99.90;;;;;;8360776;28;20036;-63
2021/03/09 02:17:39;;;;;;;11.70;6.47;;;-3.20;99.90;;;;;;8344013;28;20059;-63
2021/03/09 02:22:20;;;;;;;10.93;5.72;;;-3.30;99.90;;;;;;8361415;28;20017;-63
2021/03/09 02:27:02;;;;;;;11.65;6.20;;;-3.20;99.90;;;;;;8361541;28;20013;-63
2021/03/09 02:31:04;;;;;;;10.68;6.07;;;-3.00;99.90;;;;;;8360725;28;20083;-63
2021/03/09 02:35:09;;;;;;;13.40;6.65;;;-3.30;99.90;;;;;;8360011;28;20565;-63
2021/03/09 02:39:12;;;;;;;11.20;6.32;;;-3.30;99.90;;;;;;8359716;28;20021;-63
2021/03/09 02:43:16;;;;;;;12.18;6.28;;;-3.30;99.90;;;;;;8360360;28;20111;-63
2021/03/09 02:47:17;;;;;;;18.08;6.95;;;-3.30;99.90;;;;;;8359776;28;20112;-63
2021/03/09 02:51:22;;;;;;;11.63;6.50;;;-3.40;99.90;;;;;;8358751;28;20368;-63
2021/03/09 02:55:24;;;;;;;12.20;6.68;;;-3.50;99.90;;;;;;8352317;28;20021;-63
2021/03/09 02:59:27;;;;;;;14.80;7.20;;;-3.60;99.90;;;;;;8351235;28;20033;-63
2021/03/09 03:03:28;;;;;;;13.75;7.30;;;-3.70;99.90;;;;;;8350151;28;20029;-63
2021/03/09 03:07:33;;;;;;;14.65;7.25;;;-3.70;99.90;;;;;;8355223;28;20025;-63
2021/03/09 03:11:34;;;;;;;14.98;6.90;;;-3.50;99.90;;;;;;8359119;28;20025;-62
2021/03/09 03:15:36;;;;;;;15.25;7.47;;;-3.30;99.90;;;;;;8360372;28;20082;-63
2021/03/09 03:19:39;;;;;;;16.90;7.43;;;-3.10;99.90;;;;;;8358872;28;20025;-63
2021/03/09 03:23:41;;;;;;;12.85;7.22;;;-3.30;99.90;;;;;;8359696;28;20136;-63
2021/03/09 03:27:44;;;;;;;13.43;7.32;;;-3.50;99.90;;;;;;8359145;28;20491;-63
2021/03/09 03:31:47;;;;;;;13.63;7.45;;;-3.50;99.90;;;;;;8359809;28;20495;-63
2021/03/09 03:35:48;;;;;;;15.45;7.72;;;-3.60;99.90;;;;;;8359221;28;20083;-63
2021/03/09 03:39:49;;;;;;;12.23;6.88;;;-3.60;99.90;;;;;;8358871;28;20025;-63
2021/03/09 03:43:50;;;;;;;13.30;7.35;;;-3.70;99.90;;;;;;8359481;28;20044;-63
2021/03/09 03:47:58;;;;;;;11.88;6.15;;;-3.50;99.90;;;;;;8359918;28;20029;-63
2021/03/09 03:52:09;;;;;;;15.48;7.90;;;-3.60;99.90;;;;;;8359675;28;20037;-64
2021/03/09 03:56:30;;;;;;;16.60;7.22;;;-3.50;99.90;;;;;;8359602;28;20056;-63
2021/03/09 04:00:33;;;;;;;13.88;7.78;;;-3.50;99.90;;;;;;8359530;28;20040;-63
2021/03/09 04:04:37;;;;;;;16.70;8.30;;;-3.50;99.90;;;;;;8359360;28;20494;-63
2021/03/09 04:08:39;;;;;;;15.80;8.45;;;-3.60;99.90;;;;;;8358506;28;20025;-63
2021/03/09 04:12:40;;;;;;;15.50;7.97;;;-3.60;99.90;;;;;;8340815;28;20090;-63
2021/03/09 04:16:43;;;;;;;19.35;8.30;;;-3.70;99.90;;;;;;8359452;28;20115;-63
2021/03/09 04:20:45;;;;;;;16.73;8.52;;;-3.60;99.90;;;;;;8359158;28;20496;-64
2021/03/09 04:24:47;;;;;;;18.77;8.85;;;-3.40;99.90;;;;;;8359482;28;20025;-63
2021/03/09 04:28:50;;;;;;;15.63;8.57;;;-3.30;99.90;;;;;;8358006;28;20051;-62
2021/03/09 04:32:51;;;;;;;18.02;8.93;;;-3.30;99.90;;;;;;8356830;28;21607;-63
2021/03/09 04:36:52;;;;;;;16.17;8.88;;;-3.60;99.90;;;;;;8359982;28;20056;-63
2021/03/09 04:40:54;;;;;;;13.55;8.00;;;-3.70;99.90;;;;;;8362489;28;20017;-63
2021/03/09 04:44:54;;;;;;;18.00;8.68;;;-3.90;99.90;;;;;;8362708;28;20395;-63
2021/03/09 04:48:56;;;;;;;17.63;8.45;;;-3.70;99.90;;;;;;8345432;28;20028;-63
2021/03/09 04:52:57;;;;;;;18.60;9.80;;;-3.80;99.90;;;;;;8363615;28;20425;-63
2021/03/09 04:56:57;;;;;;;23.55;8.95;;;-3.80;99.90;;;;;;8346315;28;20025;-63
2021/03/09 05:00:58;;;;;;;16.98;8.52;;;-3.90;99.90;;;;;;8363121;28;20122;-63
2021/03/09 05:04:58;;;;;;;17.65;8.38;;;-3.70;99.90;;;;;;8357088;28;20036;-63
2021/03/09 05:08:59;;;;;;;20.25;9.60;;;-3.70;99.90;;;;;;8356509;28;20492;-63
2021/03/09 05:12:59;;;;;;;15.57;8.45;;;-3.70;99.90;;;;;;8356376;28;20478;-63
2021/03/09 05:17:00;;;;;;;17.90;9.20;;;-3.70;99.90;;;;;;8356866;28;20036;-63
2021/03/09 05:21:01;;;;;;;19.33;8.80;;;-3.60;99.90;;;;;;8361449;28;20047;-63
2021/03/09 05:25:02;;;;;;;14.32;8.30;;;-3.50;99.90;;;;;;8361687;28;20104;-63
2021/03/09 05:29:03;;;;;;;19.48;9.07;;;-3.40;99.90;;;;;;8359318;28;20135;-63
2021/03/09 05:33:03;;;;;;;14.10;8.18;;;-3.40;99.90;;;;;;8360299;28;20032;-64
2021/03/09 05:37:07;;;;;;;15.27;8.70;;;-3.30;99.90;;;;;;8360384;28;20543;-63
2021/03/09 05:41:08;;;;;;;16.75;8.57;;;-3.40;99.90;;;;;;8361221;28;20055;-64
2021/03/09 05:45:09;;;;;;;16.13;8.35;;;-3.60;99.90;;;;;;8357970;28;20021;-64
2021/03/09 05:49:10;;;;;;;18.77;9.38;;;-3.70;99.90;;;;;;8359825;28;20033;-63
2021/03/09 05:53:10;;;;;;;19.25;9.45;;;-3.50;99.90;;;;;;8361849;28;20423;-63
2021/03/09 05:57:11;;;;;;;20.98;9.80;;;-3.70;99.90;;;;;;8362581;28;20035;-63
2021/03/09 06:01:12;;;;;;;17.13;9.40;;;-3.40;99.90;;;;;;8360518;28;20074;-63
2021/03/09 06:05:12;;;;;;;20.58;9.82;;;-3.10;99.90;;;;;;8360826;28;20028;-64
2021/03/09 06:09:34;;;;;;;;;;;-3.20;99.90;;;;;;8357047;28;20017;-63
2021/03/09 06:13:35;;;;;;;;;;;-3.20;99.90;;;;;;8361852;28;20302;-64
2021/03/09 06:17:39;;;;;;;;;;;-3.10;99.90;;;;;;8358798;28;19920;-64
2021/03/09 06:21:51;;;;;;;;;;;-3.10;99.90;;;;;;8341868;28;19916;-64
2021/03/09 06:25:52;;;;;;;;;;;-2.80;99.90;;;;;;8357797;28;20497;-64
2021/03/09 06:29:53;;;;;;;;;;;-2.80;99.90;;;;;;8342361;28;19911;-64
2021/03/09 06:33:53;;;;;;;;;;;-2.60;99.90;;;;;;8359740;28;19911;-64
2021/03/09 06:38:13;;;;;;;;;;;-2.60;99.90;;;;;;8359427;28;20389;-64
2021/03/09 06:42:15;;;;;;;;;;;-2.40;99.90;;;;;;8357616;28;20275;-63
2021/03/09 06:46:17;;;;;;;;;;;-2.00;99.90;;;;;;8357517;28;19915;-63
2021/03/09 06:50:20;;;;;;;;;;;-1.70;99.90;;;;;;8337258;28;20362;-64
2021/03/09 06:54:20;;;;;;;;;;;-1.50;99.90;;;;;;8358546;28;20232;-64
2021/03/09 06:58:26;;;;;;;;;;;-1.30;99.90;;;;;;8342002;28;19916;-63
2021/03/09 07:02:27;;;;;;;;;;;-1.10;99.90;;;;;;8355602;28;20413;-63
2021/03/09 07:06:43;;;;;;;;;;;-0.90;99.90;;;;;;8359990;28;19908;-63
2021/03/09 07:10:43;;;;;;;;;;;-0.50;99.90;;;;;;8359785;28;20294;-63
2021/03/09 07:14:44;;;;;;;;;;;-0.20;99.90;;;;;;8360952;28;19911;-63
2021/03/09 07:18:46;;;;;;;;;;;0.00;99.90;;;;;;8359981;28;19905;-63
2021/03/09 07:22:47;;;;;;;;;;;0.20;99.90;;;;;;8342797;28;19915;-63
2021/03/09 07:26:54;;;;;;;;;;;0.50;99.90;;;;;;8360772;28;19981;-63
2021/03/09 07:30:56;;;;;;;;;;;0.80;99.90;;;;;;8342762;28;19904;-63
2021/03/09 07:34:58;;;;;;;;;;;1.30;99.90;;;;;;8360564;28;19927;-63
2021/03/09 07:38:59;;;;;;;;;;;1.40;99.90;;;;;;8360069;28;19932;-63
2021/03/09 07:43:00;;;;;;;;;;;1.40;99.90;;;;;;8359594;28;19912;-63
2021/03/09 07:47:01;;;;;;;;;;;1.70;99.90;;;;;;8360475;28;20081;-63
2021/03/09 07:51:03;;;;;;;;;;;2.00;99.90;;;;;;8359984;28;19992;-63
2021/03/09 07:55:03;;;;;;;;;;;1.90;99.90;;;;;;8341954;28;19913;-63
2021/03/09 07:59:05;;;;;;;;;;;2.10;99.90;;;;;;8359922;28;19912;-62
2021/03/09 08:03:16;;;;;;;;;;;2.00;99.90;;;;;;8359849;28;20385;-63
2021/03/09 08:07:36;;;;;;;;;;;2.20;99.90;;;;;;8342218;28;19905;-63
2021/03/09 08:11:37;;;;;;;;;;;2.30;99.90;;;;;;8364032;28;20283;-63
2021/03/09 08:15:38;;;;;;;;;;;2.40;99.90;;;;;;8366315;28;19950;-63
2021/03/09 08:19:39;;;;;;;;;;;2.90;99.90;;;;;;8365673;28;19908;-63
2021/03/09 08:23:40;;;;;;;;;;;2.90;99.90;;;;;;8365790;28;19905;-63
2021/03/09 08:27:41;;;;;;;;;;;2.70;99.90;;;;;;8348106;28;20370;-63
2021/03/09 08:31:41;;;;;;;;;;;2.60;99.90;;;;;;8365317;28;20371;-63
2021/03/09 08:35:41;;;;;;;;;;;2.70;99.90;;;;;;8365526;28;19909;-63
2021/03/09 08:40:02;;;;;;;;;;;3.00;99.90;;;;;;8346995;28;19919;-63
2021/03/09 08:48:38;;;;;;;;;;;3.10;99.90;;;;;;8365055;28;19905;-63
2021/03/09 08:52:40;;;;;;;;;;;3.20;99.90;;;;;;8364765;28;20456;-63
2021/03/09 08:56:41;;;;;;;;;;;3.40;99.90;;;;;;8365075;28;19905;-63
2021/03/09 09:00:41;;;;;;;;;;;3.60;99.90;;;;;;8364675;28;20337;-63
2021/03/09 09:04:47;;;;;;;;;;;3.90;99.90;;;;;;8364687;28;19915;-63
2021/03/09 09:08:48;;;;;;;;;;;4.30;99.90;;;;;;8364439;28;20341;-63
2021/03/09 09:12:49;;;;;;;;;;;4.50;99.90;;;;;;8363804;28;19915;-63
2021/03/09 09:16:52;;;;;;;;;;;4.40;99.90;;;;;;8364154;28;20545;-63
2021/03/09 09:20:52;;;;;;;;;;;4.80;99.90;;;;;;8363161;28;19974;-63
2021/03/09 09:24:54;;;;;;;;;;;5.20;99.90;;;;;;8364109;28;19908;-63
2021/03/09 09:29:02;;;;;;;;;;;5.50;99.90;;;;;;8363869;28;19909;-63
2021/03/09 09:33:05;;;;;;;;;;;5.30;99.90;;;;;;8346007;28;20278;-63
2021/03/09 09:37:14;;;;;;;;;;;5.10;99.90;;;;;;8363713;28;19905;-63
2021/03/09 09:41:14;;;;;;;31.17;19.53;;;5.00;99.90;;;;;;8360573;28;20426;-63
2021/03/09 09:45:16;;;;;;;28.70;16.35;;;5.00;99.90;;;;;;8363225;28;20028;-63
2021/03/09 09:49:16;;;;;;;24.98;14.02;;;5.10;99.90;;;;;;8345040;28;20028;-63
2021/03/09 09:53:40;;;;;;;24.30;14.68;;;5.50;99.90;;;;;;8344772;28;20079;-63
2021/03/09 09:57:50;;;;;;;27.67;14.45;;;5.90;99.90;;;;;;8362839;28;20017;-63
2021/03/09 10:01:50;;;;;;;23.10;13.77;;;6.10;99.90;;;;;;8362271;28;20029;-63
2021/03/09 10:05:52;;;;;;;23.50;13.43;;;6.00;99.90;;;;;;8362462;28;20509;-63
2021/03/09 10:10:10;;;;;;;23.58;14.20;;;6.40;99.90;;;;;;8365791;22;20123;-69
2021/03/09 10:14:10;;;;;;;24.27;14.30;;;6.80;99.90;;;;;;8361447;28;20028;-68
2021/03/09 10:18:15;;;;;;;27.38;15.63;;;6.90;99.90;;;;;;8343955;28;20119;-68
2021/03/09 10:22:18;;;;;;;25.33;14.00;;;7.30;99.90;;;;;;8343766;28;20479;-69
2021/03/09 10:26:38;;;;;;;24.75;14.57;;;7.60;99.90;;;;;;8344008;28;20049;-68
2021/03/09 10:30:40;;;;;;;24.17;14.35;;;7.50;99.90;;;;;;8361566;28;20033;-68
2021/03/09 10:34:43;;;;;;;23.45;14.23;;;8.20;99.90;;;;;;8361555;28;20029;-69
2021/03/09 10:38:44;;;;;;;22.48;13.57;;;8.60;99.90;;;;;;8343465;28;20034;-67
2021/03/09 10:42:51;;;;;;;22.52;14.73;;;8.90;99.90;;;;;;8360622;28;20088;-69
2021/03/09 10:46:52;;;;;;;23.00;14.43;;;9.10;99.90;;;;;;8361211;28;20086;-69
2021/03/09 10:50:52;;;;;;;22.60;13.68;;;9.90;99.90;;;;;;8360725;28;20475;-67
2021/03/09 10:54:52;;;;;;;21.60;13.55;;;10.10;99.90;;;;;;8361048;28;20043;-69
2021/03/09 10:58:53;;;;;;;24.17;13.95;;;9.40;99.90;;;;;;8360691;28;20025;-69
2021/03/09 11:02:54;;;;;;;19.63;12.48;;;9.80;99.90;;;;;;8360582;28;20052;-68
2021/03/09 11:06:55;;;;;;;20.38;11.98;;;10.20;99.90;;;;;;8360700;28;20033;-68
2021/03/09 11:10:55;;;;;;;16.52;11.85;;;10.50;99.90;;;;;;8359503;28;20057;-68
2021/03/09 11:14:56;;;;;;;20.92;13.25;;;11.50;98.70;;;;;;8342561;28;20033;-68
2021/03/09 11:18:58;;;;;;;16.60;11.30;;;12.50;93.50;;;;;;8360006;28;20391;-68
2021/03/09 11:22:59;;;;;;;18.73;11.00;;;12.70;91.80;;;;;;8360209;28;20051;-69
2021/03/09 11:27:00;;;;;;;16.65;11.90;;;13.40;86.70;;;;;;8360408;28;20025;-68
2021/03/09 11:31:01;;;;;;;16.13;10.73;;;12.80;86.60;;;;;;8359978;28;20030;-69
2021/03/09 11:35:02;;;;;;;14.95;9.95;;;12.60;83.50;;;;;;8359452;28;20037;-68
2021/03/09 11:39:03;;;;;;;14.75;10.52;;;12.80;78.40;;;;;;8359338;28;20044;-69
2021/03/09 11:43:04;;;;;;;15.02;10.43;;;15.00;75.70;;;;;;8358842;28;20025;-69
2021/03/09 11:47:04;;;;;;;14.75;10.27;;;16.90;62.90;;;;;;8366094;28;20029;-69
2021/03/09 11:51:06;;;;;;;12.40;9.05;;;17.50;58.60;;;;;;8356089;28;20013;-69
2021/03/09 11:55:09;;;;;;;13.63;9.65;;;17.00;55.20;;;;;;8362987;28;20021;-69
2021/03/09 11:59:10;;;;;;;13.73;9.88;;;16.80;52.90;;;;;;8363839;28;20040;-69
2021/03/09 12:03:11;;;;;;;14.23;10.13;;;18.10;53.40;;;;;;8364769;28;20438;-69
2021/03/09 12:07:12;;;;;;;15.95;11.27;;;19.50;47.80;;;;;;8364798;28;20017;-70
2021/03/09 12:11:12;;;;;;;12.60;10.73;;;20.20;47.90;;;;;;8345865;28;20384;-69
2021/03/09 12:15:13;;;;;;;13.52;10.65;;;20.90;43.80;;;;;;8364984;28;20013;-69
2021/03/09 12:19:14;;;;;;;14.88;11.65;;;19.60;46.20;;;;;;8364892;28;20446;-69
2021/03/09 12:23:15;;;;;;;13.52;10.65;;;18.00;49.30;;;;;;8364154;28;20028;-69
2021/03/09 12:27:15;;;;;;;13.07;10.90;;;19.30;47.70;;;;;;8361770;28;20390;-69
2021/03/09 12:31:16;;;;;;;14.10;11.27;;;19.50;45.70;;;;;;8356196;28;20033;-68
2021/03/09 12:35:17;;;;;;;14.45;10.57;;;20.20;45.20;;;;;;8355487;28;20471;-67
2021/03/09 12:39:17;;;;;;;13.50;10.67;;;19.30;44.60;;;;;;8360452;28;20402;-67
2021/03/09 12:43:18;;;;;;;13.68;10.68;;;17.90;48.20;;;;;;8358770;28;20684;-66
2021/03/09 12:47:19;;;;;;;15.95;10.77;;;17.20;48.90;;;;;;8343224;28;20486;-67
2021/03/09 12:51:19;;;;;;;15.13;10.85;;;18.10;45.10;;;;;;8357762;28;20021;-69
2021/03/09 12:55:20;;;;;;;14.57;9.48;;;16.00;46.60;;;;;;8342426;28;20670;-69
2021/03/09 12:59:20;;;;;;;13.30;9.70;;;15.20;48.00;;;;;;8358663;28;20025;-68
2021/03/09 13:03:21;;;;;;;17.55;10.77;;;15.50;49.80;;;;;;8345784;28;20025;-70
2021/03/09 13:07:22;;;;;;;13.85;10.38;;;17.40;45.30;;;;;;8361735;28;20096;-70
2021/03/09 13:11:22;;;;;;;14.00;10.75;;;18.50;42.10;;;;;;8360296;28;20033;-68
2021/03/09 13:15:23;;;;;;;15.27;10.82;;;17.40;44.20;;;;;;8358783;28;20543;-69
2021/03/09 13:19:25;;;;;;;14.60;10.50;;;16.80;44.20;;;;;;8360635;28;20033;-68
2021/03/09 13:23:26;;;;;;;14.23;11.38;;;17.00;43.60;;;;;;8361025;28;20017;-68
2021/03/09 13:27:27;;;;;;;16.88;11.57;;;16.70;43.90;;;;;;8361888;28;20584;-68
2021/03/09 13:31:28;;;;;;;16.20;11.50;;;16.80;45.20;;;;;;8360772;28;20075;-69
2021/03/09 13:35:28;;;;;;;14.07;11.43;;;17.50;43.90;;;;;;8361778;28;20037;-69
2021/03/09 13:39:29;;;;;;;14.90;10.88;;;18.60;42.20;;;;;;8359567;28;20087;-69
2021/03/09 13:43:30;;;;;;;15.65;11.13;;;17.00;44.60;;;;;;8360735;28;20025;-68
2021/03/09 13:47:30;;;;;;;16.33;11.73;;;16.80;44.60;;;;;;8359184;28;20061;-68
2021/03/09 13:51:31;;;;;;;16.90;12.18;;;15.60;45.90;;;;;;8343811;28;20040;-68
2021/03/09 13:55:32;;;;;;;18.33;12.75;;;14.90;48.10;;;;;;8360330;28;20104;-68
2021/03/09 13:59:32;;;;;;;17.08;12.02;;;14.20;50.30;;;;;;8343106;28;20033;-67
2021/03/09 14:03:33;;;;;;;15.82;11.43;;;13.10;51.30;;;;;;8357802;28;20036;-69
2021/03/09 14:07:34;;;;;;;18.67;12.73;;;13.40;52.90;;;;;;8346533;28;20029;-69
2021/03/09 14:11:34;;;;;;;16.85;12.57;;;13.90;54.20;;;;;;8351244;28;20028;-69
2021/03/09 14:15:35;;;;;;;15.82;12.30;;;15.40;50.90;;;;;;8360232;28;20036;-69
2021/03/09 14:19:35;;;;;;;16.63;12.70;;;16.50;46.80;;;;;;8356803;28;20545;-68
2021/03/09 14:23:36;;;;;;;16.00;12.27;;;17.10;46.70;;;;;;8357444;28;20029;-69
2021/03/09 14:27:41;;;;;;;17.45;12.90;;;16.50;44.50;;;;;;8354932;28;20054;-69
2021/03/09 14:31:42;;;;;;;17.30;12.05;;;15.10;49.70;;;;;;8355761;28;20123;-69
2021/03/09 14:35:43;;;;;;;16.05;12.57;;;14.40;49.20;;;;;;8357360;28;20502;-69
2021/03/09 14:39:43;;;;;;;18.08;12.50;;;13.70;52.20;;;;;;8357559;28;20029;-68
2021/03/09 14:43:44;;;;;;;16.38;11.60;;;12.70;53.10;;;;;;8356777;28;20580;-67
2021/03/09 14:47:48;;;;;;;12.48;7.85;;;11.70;52.10;;;;;;8340728;28;20074;-68
2021/03/09 14:51:49;;;;;;;16.70;11.57;;;11.50;52.40;;;;;;8359381;28;20097;-69
2021/03/09 14:55:49;;;;;;;15.50;9.18;;;10.10;54.00;;;;;;8352464;28;20478;-69
2021/03/09 14:59:50;;;;;;;15.13;10.88;;;9.40;57.40;;;;;;8353395;28;20403;-68
2021/03/09 15:03:56;;;;;;;16.55;10.48;;;9.40;57.50;;;;;;8355891;28;20518;-69
2021/03/09 15:07:56;;;;;;;15.20;10.55;;;9.70;57.60;;;;;;8331654;28;20075;-68
2021/03/09 15:11:57;;;;;;;18.33;11.15;;;9.70;56.80;;;;;;8350979;28;20070;-68
2021/03/09 15:15:58;;;;;;;16.33;10.43;;;10.20;56.80;;;;;;8355561;28;20029;-70
2021/03/09 15:19:59;;;;;;;15.90;10.35;;;10.40;57.70;;;;;;8355174;28;20406;-69
2021/03/09 15:23:59;;;;;;;15.63;10.38;;;10.20;56.90;;;;;;8356886;28;20025;-69
2021/03/09 15:28:00;;;;;;;16.35;10.85;;;9.70;58.20;;;;;;8352563;28;20032;-69
2021/03/09 15:32:00;;;;;;;17.10;11.52;;;9.20;59.10;;;;;;8355203;28;20031;-68
2021/03/09 15:36:01;;;;;;;15.75;10.30;;;9.00;60.40;;;;;;8357458;28;20021;-69
2021/03/09 15:40:03;;;;;;;19.58;10.90;;;9.10;60.10;;;;;;8345170;28;20171;-69
2021/03/09 15:44:05;;;;;;;18.88;10.85;;;9.10;60.40;;;;;;8350704;28;20071;-69
2021/03/09 15:48:06;;;;;;;14.85;10.27;;;9.40;59.30;;;;;;8356913;28;20047;-69
2021/03/09 15:52:10;;;;;;;15.93;10.73;;;9.40;59.50;;;;;;8358333;28;20103;-69
2021/03/09 15:56:10;;;;;;;15.55;9.82;;;9.00;63.20;;;;;;8352928;28;20024;-69
2021/03/09 16:00:12;;;;;;;16.02;10.70;;;8.60;62.40;;;;;;8353076;28;20091;-68
2021/03/09 16:04:12;;;;;;;17.60;10.73;;;8.20;66.80;;;;;;8339174;28;20036;-68
2021/03/09 16:08:13;;;;;;;15.57;10.18;;;8.60;66.10;;;;;;8351676;28;20147;-69
2021/03/09 16:12:13;;;;;;;18.02;9.98;;;9.30;82.50;;;;;;8339967;28;20032;-69
2021/03/09 16:16:14;;;;;;;16.05;10.95;;;10.00;76.80;;;;;;8349451;28;20494;-70
2021/03/09 16:20:16;;;;;;;16.27;10.45;;;10.50;78.60;;;;;;8350559;28;20032;-70
2021/03/09 16:24:16;;;;;;;18.42;10.65;;;10.20;64.80;;;;;;8354721;28;20025;-71
2021/03/09 16:28:17;;;;;;;17.05;11.15;;;9.80;67.00;;;;;;8337060;28;20403;-70
2021/03/09 16:32:17;;;;;;;16.05;11.20;;;9.20;70.00;;;;;;8354041;28;20510;-68
2021/03/09 16:36:18;;;;;;;17.40;10.75;;;8.80;72.00;;;;;;8353055;28;20029;-69
2021/03/09 16:40:19;;;;;;;17.98;11.82;;;9.00;83.80;;;;;;8338096;28;20099;-69
2021/03/09 16:44:19;;;;;;;16.98;11.80;;;8.60;71.70;;;;;;8349238;28;20052;-69
2021/03/09 16:48:20;;;;;;;21.60;10.98;;;8.00;72.70;;;;;;8350657;28;20033;-69
2021/03/09 16:52:20;;;;;;;19.30;10.75;;;7.30;77.10;;;;;;8332981;28;20049;-69
2021/03/09 16:56:21;;;;;;;17.85;11.43;;;6.90;78.10;;;;;;8347385;28;20036;-69
2021/03/09 17:00:22;;;;;;;17.20;10.93;;;6.70;80.30;;;;;;8340509;28;20122;-71
2021/03/09 17:04:23;;;;;;;17.33;10.60;;;6.50;83.60;;;;;;8346552;28;20052;-69
2021/03/09 17:08:23;;;;;;;18.42;11.02;;;6.20;85.20;;;;;;8352523;28;20096;-69
2021/03/09 17:12:24;;;;;;;17.77;10.55;;;5.90;85.70;;;;;;8359496;28;20056;-69
2021/03/09 17:16:25;;;;;;;19.48;11.38;;;5.70;87.50;;;;;;8357485;28;20139;-69
2021/03/09 17:20:25;;;;;;;16.55;10.13;;;5.40;89.50;;;;;;8358909;28;20025;-68
2021/03/09 17:24:26;;;;;;;18.58;11.50;;;5.40;89.80;;;;;;8360065;28;20027;-69
2021/03/09 17:28:27;;;;;;;18.90;10.98;;;5.40;91.00;;;;;;8360743;28;20025;-69
2021/03/09 17:32:27;;;;;;;21.10;11.23;;;5.50;90.60;;;;;;8359441;28;20391;-69
2021/03/09 17:36:28;;;;;;;17.60;11.18;;;5.50;93.50;;;;;;8342010;28;20402;-68
2021/03/09 17:40:28;;;;;;;18.23;11.30;;;5.40;93.00;;;;;;8355798;28;20024;-70
2021/03/09 17:44:30;;;;;;;17.45;11.35;;;5.50;91.60;;;;;;8359552;28;20027;-69
2021/03/09 17:48:31;;;;;;;18.45;11.68;;;5.70;92.70;;;;;;8356215;28;20032;-68
2021/03/09 17:52:32;;;;;;;20.30;12.80;;;5.80;92.30;;;;;;8351170;28;20037;-69
2021/03/09 17:56:34;;;;;;;21.60;12.38;;;5.80;92.70;;;;;;8353483;28;20036;-69
2021/03/09 18:00:35;;;;;;;19.52;12.40;;;5.70;93.60;;;;;;8354257;28;20515;-69
2021/03/09 18:04:36;;;;;;;18.63;12.18;;;5.50;96.80;;;;;;8339480;28;20056;-70
2021/03/09 18:08:37;;;;;;;19.65;11.85;;;5.10;99.90;;;;;;8349589;28;20023;-69
2021/03/09 18:12:37;;;;;;;21.13;11.63;;;4.90;99.90;;;;;;8350246;28;20028;-71
2021/03/09 18:16:38;;;;;;;19.80;12.32;;;5.00;99.90;;;;;;8331583;28;20033;-69
2021/03/09 18:20:39;;;;;;;21.27;12.00;;;5.00;99.90;;;;;;8339128;28;20037;-70
2021/03/09 18:24:39;;;;;;;18.88;11.32;;;5.00;99.90;;;;;;8352563;28;20614;-70
2021/03/09 18:28:40;;;;;;;17.70;10.88;;;5.00;99.90;;;;;;8336623;28;20120;-70
2021/03/09 18:32:41;;;;;;;17.77;11.18;;;5.00;99.90;;;;;;8353723;28;20070;-70
2021/03/09 18:36:42;;;;;;;21.77;11.70;;;5.00;99.90;;;;;;8354658;28;20037;-70
2021/03/09 18:40:43;;;;;;;21.05;12.02;;;5.00;99.90;;;;;;8354437;28;20041;-69
2021/03/09 18:44:44;;;;;;;20.40;11.55;;;4.90;99.90;;;;;;8351562;28;20402;-71
2021/03/09 18:48:45;;;;;;;20.30;12.05;;;4.90;99.90;;;;;;8354698;28;20040;-70
2021/03/09 18:52:45;;;;;;;22.42;12.48;;;4.90;99.90;;;;;;8354022;28;20056;-70
2021/03/09 18:56:46;;;;;;;21.13;12.65;;;4.80;99.90;;;;;;8333839;28;20159;-70
2021/03/09 19:00:46;;;;;;;23.42;12.77;;;4.80;99.90;;;;;;8354099;28;20029;-70
2021/03/09 19:04:47;;;;;;;24.55;13.52;;;4.80;99.90;;;;;;8354631;28;20029;-69
2021/03/09 19:08:47;;;;;;;21.50;13.02;;;5.10;99.90;;;;;;8336909;28;20087;-69
2021/03/09 19:12:48;;;;;;;28.38;14.38;;;4.90;99.90;;;;;;8355709;28;20122;-71
2021/03/09 19:16:49;;;;;;;30.48;16.50;;;5.10;99.90;;;;;;8351372;28;20032;-71
2021/03/09 19:20:49;;;;;;;23.38;12.93;;;5.20;99.90;;;;;;8335332;28;20554;-69
2021/03/09 19:24:50;;;;;;;22.23;13.88;;;5.10;99.90;;;;;;8350363;28;20036;-70
2021/03/09 19:28:51;;;;;;;21.88;12.88;;;4.80;99.90;;;;;;8350049;28;20021;-70
2021/03/09 19:32:51;;;;;;;23.15;14.27;;;4.70;99.90;;;;;;8327572;28;20052;-70
2021/03/09 19:36:52;;;;;;;23.60;14.00;;;4.50;99.90;;;;;;8336720;28;20040;-70
2021/03/09 19:40:53;;;;;;;24.65;14.35;;;4.60;99.90;;;;;;8330348;28;20032;-70
2021/03/09 19:44:53;;;;;;;25.02;13.70;;;4.70;99.90;;;;;;8336260;28;20024;-70
2021/03/09 19:48:54;;;;;;;24.80;14.00;;;4.60;99.90;;;;;;8322447;28;20029;-70
2021/03/09 19:52:55;;;;;;;27.42;14.05;;;4.60;99.90;;;;;;8342403;28;20032;-69
2021/03/09 19:56:57;;;;;;;26.58;14.57;;;4.30;99.90;;;;;;8342767;28;20082;-71
2021/03/09 20:00:57;;;;;;;26.35;14.63;;;4.20;99.90;;;;;;8341329;28;20018;-71
2021/03/09 20:04:58;;;;;;;31.95;17.48;;;4.20;99.90;;;;;;8341280;28;20386;-70
2021/03/09 20:08:59;;;;;;;26.70;14.70;;;4.10;99.90;;;;;;8346779;28;20541;-70
2021/03/09 20:13:00;;;;;;;26.45;15.23;;;4.20;99.90;;;;;;8347355;28;20403;-70
2021/03/09 20:17:00;;;;;;;28.27;15.52;;;4.20;99.90;;;;;;8349399;28;20401;-69
2021/03/09 20:21:01;;;;;;;26.77;14.93;;;4.10;99.90;;;;;;8353385;28;20033;-70
2021/03/09 20:25:03;;;;;;;25.42;15.50;;;4.10;99.90;;;;;;8358116;28;20029;-69
2021/03/09 20:29:04;;;;;;;27.92;15.02;;;4.10;99.90;;;;;;8357947;28;20503;-69
2021/03/09 20:33:05;;;;;;;30.00;16.45;;;4.00;99.90;;;;;;8355879;28;20082;-70
2021/03/09 20:37:06;;;;;;;25.63;15.85;;;3.90;99.90;;;;;;8339652;28;20035;-70
2021/03/09 20:41:07;;;;;;;28.88;16.48;;;4.00;99.90;;;;;;8356315;28;20020;-70
2021/03/09 20:45:09;;;;;;;33.03;17.80;;;3.80;99.90;;;;;;8344443;28;20028;-70
2021/03/09 20:49:10;;;;;;;28.55;16.60;;;3.60;99.90;;;;;;8338363;28;20028;-70
2021/03/09 20:53:10;;;;;;;34.70;18.48;;;3.60;99.90;;;;;;8357418;28;20032;-70
2021/03/09 20:57:11;;;;;;;38.80;18.42;;;3.70;99.90;;;;;;8339422;28;20028;-70
2021/03/09 21:01:12;;;;;;;27.02;16.35;;;3.90;99.90;;;;;;8358004;28;20486;-70
2021/03/09 21:05:14;;;;;;;28.98;16.48;;;3.80;99.90;;;;;;8377399;22;20049;-63
2021/03/09 21:09:15;;;;;;;31.95;16.23;;;3.60;99.90;;;;;;8356126;28;20017;-63